.
WxDataArchive / Data Records for 2013-01-16
2013-01-15 January 2013 2013-01-17

Data Records for Wednesday, 16 January 2013

Time	Temp	Chill	HIndex	Humid	Dewpt	 Wind 	HiWind	WindDir	Rain 	Barom 
-----	----	-----	------	-----	-----	------	------	-------	-----	----- 
00:00	24.5	24.5	24.5	81	19.5	0	1	112	0.00	30.151 
00:05	24.4	24.4	24.4	81	19.4	0	1	112	0.00	30.151 
00:10	24.4	24.4	24.4	81	19.4	0	1	112	0.00	30.151 
00:15	24.2	24.2	24.2	81	19.2	0	0	---	0.00	30.140 
00:20	24.1	24.1	24.1	81	19.1	0	1	112	0.00	30.140 
00:25	23.8	23.8	23.8	81	18.8	0	0	---	0.00	30.140 
00:30	23.6	23.6	23.6	81	18.6	0	0	---	0.00	30.137 
00:35	23.6	23.6	23.6	81	18.6	0	0	---	0.00	30.137 
00:40	23.3	23.3	23.3	81	18.3	0	0	---	0.00	30.137 
00:45	23.2	23.2	23.2	81	18.3	0	0	---	0.00	30.132 
00:50	23.0	23.0	23.0	82	18.3	0	0	---	0.00	30.132 
00:55	22.7	22.7	22.7	82	18.0	0	0	---	0.00	30.132 
01:00	22.5	22.5	22.5	82	17.9	0	0	---	0.00	30.130 
01:05	22.4	22.4	22.4	83	18.0	0	0	---	0.00	30.130 
01:10	22.4	22.4	22.4	83	18.0	0	0	---	0.00	30.130 
01:15	22.2	22.2	22.2	83	17.8	0	0	---	0.00	30.116 
01:20	22.1	22.1	22.1	83	17.7	0	0	---	0.00	30.116 
01:25	21.8	21.8	21.8	83	17.4	0	0	---	0.00	30.116 
01:30	21.6	21.6	21.6	83	17.3	0	0	---	0.00	30.100 
01:35	21.4	21.4	21.4	83	17.1	0	0	---	0.00	30.100 
01:40	21.4	21.4	21.4	84	17.3	0	0	---	0.00	30.100 
01:45	21.3	21.3	21.3	84	17.2	0	0	---	0.00	30.099 
01:50	21.3	21.3	21.3	84	17.2	0	0	---	0.00	30.099 
01:55	21.1	21.1	21.1	84	17.0	0	0	---	0.00	30.099 
02:00	21.1	21.1	21.1	84	17.0	0	0	---	0.00	30.094 
02:05	21.0	21.0	21.0	84	16.9	0	0	---	0.00	30.094 
02:10	21.0	21.0	21.0	85	17.2	0	0	---	0.00	30.094 
02:15	21.0	21.0	21.0	85	17.2	0	0	---	0.00	30.103 
02:20	21.0	21.0	21.0	85	17.2	0	0	---	0.00	30.103 
02:25	21.0	21.0	21.0	85	17.2	0	0	---	0.00	30.103 
02:30	21.0	21.0	21.0	85	17.2	0	0	---	0.00	30.106 
02:35	21.0	21.0	21.0	86	17.5	0	0	---	0.00	30.106 
02:40	21.0	21.0	21.0	86	17.5	0	0	---	0.00	30.106 
02:45	21.0	21.0	21.0	86	17.5	0	0	---	0.00	30.107 
02:50	21.0	21.0	21.0	86	17.5	0	0	---	0.00	30.107 
02:55	20.8	20.8	20.8	86	17.3	0	0	---	0.00	30.107 
03:00	20.6	20.6	20.6	86	17.1	0	0	---	0.00	30.107 
03:05	20.5	20.5	20.5	86	17.0	0	0	---	0.00	30.107 
03:10	20.5	20.5	20.5	86	17.0	0	0	---	0.00	30.107 
03:15	20.5	20.5	20.5	86	17.0	0	0	---	0.00	30.088 
03:20	20.5	20.5	20.5	86	17.0	0	0	---	0.00	30.088 
03:25	20.5	20.5	20.5	86	17.0	0	0	---	0.00	30.088 
03:30	20.5	20.5	20.5	86	17.0	0	0	---	0.00	30.079 
03:35	20.5	20.5	20.5	87	17.3	0	0	---	0.00	30.079 
03:40	20.6	20.6	20.6	87	17.4	0	0	---	0.00	30.079 
03:45	20.8	20.8	20.8	87	17.6	0	0	---	0.00	30.094 
03:50	20.8	20.8	20.8	87	17.6	0	0	---	0.00	30.094 
03:55	20.8	20.8	20.8	87	17.6	0	0	---	0.00	30.094 
04:00	20.8	20.8	20.8	87	17.6	0	0	---	0.00	30.102 
04:05	20.8	20.8	20.8	87	17.6	0	0	---	0.00	30.102 
04:10	20.8	20.8	20.8	87	17.6	0	0	---	0.00	30.102 
04:15	21.0	21.0	21.0	87	17.8	0	0	---	0.00	30.094 
04:20	21.1	21.1	21.1	88	18.1	0	0	---	0.00	30.094 
04:25	21.1	21.1	21.1	88	18.1	0	0	---	0.00	30.094 
04:30	21.3	21.3	21.3	88	18.3	0	0	---	0.00	30.075 
04:35	21.4	21.4	21.4	88	18.4	0	0	---	0.00	30.075 
04:40	21.4	21.4	21.4	88	18.4	0	0	---	0.00	30.075 
04:45	21.6	21.6	21.6	88	18.6	0	0	---	0.00	30.064 
04:50	21.8	21.8	21.8	88	18.8	0	0	---	0.00	30.064 
04:55	21.8	21.8	21.8	88	18.8	0	0	---	0.00	30.064 
05:00	21.9	21.9	21.9	88	18.9	0	0	---	0.00	30.050 
05:05	22.1	22.1	22.1	88	19.1	0	0	---	0.00	30.050 
05:10	22.2	22.2	22.2	88	19.2	0	0	---	0.00	30.050 
05:15	22.2	22.2	22.2	88	19.2	0	0	---	0.00	30.051 
05:20	22.4	22.4	22.4	88	19.4	0	0	---	0.00	30.051 
05:25	22.5	22.5	22.5	88	19.5	0	0	---	0.00	30.051 
05:30	22.5	22.5	22.5	88	19.5	0	0	---	0.00	30.042 
05:35	22.7	22.7	22.7	88	19.7	0	0	---	0.00	30.042 
05:40	22.9	22.9	22.9	88	19.9	0	0	---	0.00	30.042 
05:45	22.9	22.9	22.9	88	19.9	0	0	---	0.00	30.037 
05:50	22.9	22.9	22.9	88	19.9	0	0	---	0.00	30.037 
05:55	23.0	23.0	23.0	88	20.0	0	0	---	0.00	30.037 
06:00	23.0	23.0	23.0	87	19.7	0	0	---	0.00	30.038 
06:05	22.9	22.9	22.9	87	19.6	0	0	---	0.00	30.038 
06:10	22.9	22.9	22.9	87	19.6	0	0	---	0.00	30.038 
06:15	22.9	22.9	22.9	87	19.6	0	0	---	0.00	30.036 
06:20	22.9	22.9	22.9	87	19.6	0	0	---	0.00	30.036 
06:25	22.7	22.7	22.7	87	19.4	0	0	---	0.00	30.036 
06:30	22.7	22.7	22.7	87	19.4	0	0	---	0.00	30.037 
06:35	22.7	22.7	22.7	87	19.4	0	0	---	0.00	30.037 
06:40	22.7	22.7	22.7	87	19.4	0	0	---	0.00	30.037 
06:45	22.7	22.7	22.7	87	19.4	0	0	---	0.00	30.043 
06:50	22.7	22.7	22.7	87	19.4	0	0	---	0.00	30.043 
06:55	22.7	22.7	22.7	87	19.4	0	0	---	0.00	30.043 
07:00	22.5	22.5	22.5	87	19.2	0	0	---	0.00	30.029 
07:05	22.5	22.5	22.5	87	19.2	0	0	---	0.00	30.029 
07:10	22.5	22.5	22.5	87	19.2	0	0	---	0.00	30.029 
07:15	22.4	22.4	22.4	87	19.1	0	0	---	0.00	30.019 
07:20	22.4	22.4	22.4	87	19.1	0	0	---	0.00	30.019 
07:25	22.5	22.5	22.5	87	19.2	0	0	---	0.00	30.019 
07:30	22.5	22.5	22.5	87	19.2	0	1	112	0.00	30.006 
07:35	22.5	22.5	22.5	87	19.2	0	0	---	0.00	30.006 
07:40	22.5	22.5	22.5	87	19.2	0	0	---	0.00	30.006 
07:45	22.5	22.5	22.5	87	19.2	0	0	---	0.00	30.019 
07:50	22.7	22.7	22.7	87	19.4	0	0	---	0.00	30.019 
07:55	22.7	22.7	22.7	87	19.4	0	0	---	0.00	30.019 
08:00	22.7	22.7	22.7	87	19.4	0	0	---	0.00	30.021 
08:05	22.7	22.7	22.7	87	19.4	0	0	---	0.00	30.021 
08:10	22.7	22.7	22.7	87	19.4	0	0	---	0.00	30.021 
08:15	22.7	22.7	22.7	87	19.4	0	0	---	0.00	30.018 
08:20	22.9	22.9	22.9	87	19.6	0	0	---	0.00	30.018 
08:25	22.7	22.7	22.7	87	19.4	0	0	---	0.00	30.018 
08:30	22.7	22.7	22.7	87	19.4	0	0	---	0.00	30.009 
08:35	22.5	22.5	22.5	87	19.2	0	0	---	0.00	30.009 
08:40	22.5	22.5	22.5	87	19.2	0	0	---	0.00	30.009 
08:45	22.5	22.5	22.5	87	19.2	0	0	---	0.00	30.005 
08:50	22.5	22.5	22.5	87	19.2	0	0	---	0.00	30.005 
08:55	22.5	22.5	22.5	87	19.2	0	0	---	0.00	30.005 
09:00	22.7	22.7	22.7	87	19.4	0	1	112	0.00	30.006 
09:05	22.9	22.9	22.9	88	19.9	0	1	112	0.00	30.006 
09:10	23.2	23.2	23.2	88	20.2	0	1	112	0.00	30.006 
09:15	23.6	23.6	23.6	88	20.6	0	2	158	0.00	30.023 
09:20	23.9	23.9	23.9	87	20.6	0	1	158	0.00	30.023 
09:25	24.2	24.2	24.2	87	20.9	0	1	180	0.00	30.023 
09:30	24.7	24.7	24.7	87	21.4	0	1	180	0.00	30.030 
09:35	25.0	25.0	25.0	87	21.7	1	4	248	0.00	30.030 
09:40	25.6	25.6	25.6	86	22.0	0	2	248	0.00	30.030 
09:45	26.0	26.0	26.0	85	22.1	1	3	248	0.00	30.034 
09:50	26.3	26.3	26.3	84	22.1	0	3	248	0.00	30.034 
09:55	26.6	26.6	26.6	83	22.1	1	4	248	0.00	30.034 
10:00	26.7	26.7	26.7	82	22.0	2	5	248	0.00	30.036 
10:05	27.0	27.0	27.0	81	22.0	2	6	248	0.00	30.036 
10:10	27.2	27.2	27.2	80	21.9	2	7	248	0.00	30.036 
10:15	27.3	27.3	27.3	80	22.0	1	4	248	0.00	30.031 
10:20	27.6	27.6	27.6	79	22.0	1	5	248	0.00	30.031 
10:25	27.8	27.8	27.8	78	21.8	2	5	248	0.00	30.031 
10:30	28.1	28.1	28.1	77	21.8	1	4	248	0.00	30.020 
10:35	28.2	28.2	28.2	76	21.6	2	4	248	0.00	30.020 
10:40	28.4	28.4	28.4	76	21.8	1	4	270	0.00	30.020 
10:45	28.7	28.7	28.7	75	21.8	2	4	270	0.00	30.011 
10:50	28.8	28.8	28.8	75	21.9	2	6	270	0.00	30.011 
10:55	29.0	29.0	29.0	74	21.8	2	4	248	0.00	30.011 
11:00	29.1	29.1	29.1	74	21.9	1	3	248	0.00	30.004 
11:05	29.4	29.4	29.4	73	21.8	1	3	248	0.00	30.004 
11:10	29.5	29.5	29.5	73	21.9	2	5	248	0.00	30.004 
11:15	29.7	29.7	29.7	71	21.5	2	6	248	0.00	30.011 
11:20	29.8	29.8	29.8	70	21.2	2	5	248	0.00	30.011 
11:25	29.8	29.8	29.8	69	20.9	3	9	248	0.00	30.011 
11:30	30.0	30.0	30.0	69	21.1	2	5	338	0.00	30.004 
11:35	30.3	30.3	30.3	69	21.4	2	5	270	0.00	30.004 
11:40	30.7	30.7	30.7	69	21.8	1	4	270	0.00	30.004 
11:45	30.7	30.7	30.7	67	21.1	2	5	248	0.00	29.999 
11:50	30.9	30.9	30.9	65	20.5	2	5	292	0.00	29.999 
11:55	31.0	31.0	31.0	65	20.6	2	5	248	0.00	29.999 
12:00	31.0	31.0	31.0	64	20.3	3	5	270	0.00	29.992 
12:05	31.0	31.0	31.0	64	20.3	2	6	248	0.00	29.992 
12:10	31.2	31.2	31.2	64	20.5	2	5	248	0.00	29.992 
12:15	31.3	31.3	31.3	64	20.6	2	4	270	0.00	29.976 
12:20	31.6	31.6	31.6	64	20.8	2	4	270	0.00	29.976 
12:25	31.9	31.9	31.9	64	21.1	1	4	270	0.00	29.976 
12:30	32.1	32.1	32.1	61	20.2	2	7	248	0.00	29.968 
12:35	32.5	32.5	32.5	62	20.9	1	4	292	0.00	29.968 
12:40	32.7	32.7	32.7	59	20.0	2	4	248	0.00	29.968 
12:45	32.9	32.9	32.9	59	20.2	1	5	248	0.00	29.949 
12:50	33.1	33.1	33.1	59	20.4	1	4	292	0.00	29.949 
12:55	33.2	33.2	33.2	57	19.6	2	6	248	0.00	29.949 
13:00	33.2	33.2	33.2	55	18.8	2	6	248	0.00	29.938 
13:05	33.4	33.4	33.4	54	18.6	2	6	248	0.00	29.938 
13:10	33.5	33.5	33.5	56	19.5	2	4	248	0.00	29.938 
13:15	33.7	33.7	33.7	57	20.1	1	5	248	0.00	29.938 
13:20	34.1	34.1	34.1	54	19.2	2	6	248	0.00	29.938 
13:25	34.1	34.1	34.1	52	18.3	3	9	248	0.00	29.938 
13:30	34.6	34.6	34.6	52	18.8	2	4	248	0.00	29.934 
13:35	34.6	34.6	34.6	51	18.4	2	6	248	0.00	29.934 
13:40	34.7	34.7	34.7	50	18.0	2	5	248	0.00	29.934 
13:45	34.9	34.9	34.9	54	20.0	1	4	248	0.00	29.923 
13:50	35.2	35.2	35.2	53	19.8	1	5	248	0.00	29.923 
13:55	35.2	35.2	35.2	50	18.4	3	9	248	0.00	29.923 
14:00	35.0	35.0	35.0	50	18.3	2	10	248	0.00	29.922 
14:05	35.2	35.2	35.2	50	18.4	2	10	248	0.00	29.922 
14:10	35.3	35.3	35.3	48	17.6	3	7	248	0.00	29.922 
14:15	35.5	35.5	35.5	48	17.8	2	7	248	0.00	29.918 
14:20	35.6	35.6	35.6	46	16.9	2	6	248	0.00	29.918 
14:25	35.9	35.9	35.9	46	17.2	2	5	248	0.00	29.918 
14:30	35.9	35.9	35.9	45	16.7	3	6	248	0.00	29.917 
14:35	35.9	35.9	35.9	45	16.7	3	11	248	0.00	29.917 
14:40	36.0	36.0	36.0	47	17.7	2	7	248	0.00	29.917 
14:45	36.5	36.5	36.5	47	18.2	2	6	248	0.00	29.919 
14:50	36.5	36.5	36.5	47	18.2	3	7	248	0.00	29.919 
14:55	36.5	36.5	36.5	48	18.7	3	7	248	0.00	29.919 
15:00	36.6	36.6	36.6	48	18.8	3	6	248	0.00	29.915 
15:05	36.6	36.6	36.6	46	17.8	3	6	270	0.00	29.915 
15:10	36.6	36.6	36.6	43	16.2	3	9	248	0.00	29.915 
15:15	36.6	33.4	36.6	40	14.6	4	12	270	0.00	29.919 
15:20	36.5	36.5	36.5	41	15.1	3	10	248	0.00	29.919 
15:25	36.6	36.6	36.6	42	15.7	3	6	248	0.00	29.919 
15:30	36.8	36.8	36.8	43	16.4	2	11	248	0.00	29.925 
15:35	36.8	33.6	36.8	40	14.8	4	12	248	0.00	29.925 
15:40	36.5	33.3	36.5	42	15.6	4	10	248	0.00	29.925 
15:45	36.5	36.5	36.5	43	16.2	3	7	248	0.00	29.922 
15:50	36.2	32.9	36.2	42	15.3	4	10	248	0.00	29.922 
15:55	36.2	36.2	36.2	43	15.9	3	7	248	0.00	29.922 
16:00	36.0	36.0	36.0	44	16.2	3	5	248	0.00	29.919 
16:05	35.8	35.8	35.8	44	16.0	3	13	248	0.00	29.919 
16:10	35.5	35.5	35.5	45	16.3	3	7	248	0.00	29.919 
16:15	35.3	35.3	35.3	46	16.6	2	6	248	0.00	29.921 
16:20	35.2	35.2	35.2	46	16.5	2	6	270	0.00	29.921 
16:25	35.0	35.0	35.0	46	16.3	3	7	248	0.00	29.921 
16:30	34.9	34.9	34.9	46	16.2	3	7	248	0.00	29.923 
16:35	34.9	34.9	34.9	46	16.2	3	9	248	0.00	29.923 
16:40	34.9	34.9	34.9	46	16.2	3	7	248	0.00	29.923 
16:45	34.9	34.9	34.9	46	16.2	3	7	248	0.00	29.935 
16:50	34.7	34.7	34.7	46	16.1	3	6	248	0.00	29.935 
16:55	34.7	34.7	34.7	47	16.6	2	5	248	0.00	29.935 
17:00	34.6	34.6	34.6	48	16.9	2	6	248	0.00	29.936 
17:05	34.4	34.4	34.4	49	17.2	0	3	248	0.00	29.936 
17:10	34.3	34.3	34.3	50	17.6	1	3	248	0.00	29.936 
17:15	34.1	34.1	34.1	52	18.3	1	3	248	0.00	29.953 
17:20	33.8	33.8	33.8	53	18.5	1	5	248	0.00	29.953 
17:25	33.8	33.8	33.8	53	18.5	2	6	248	0.00	29.953 
17:30	33.7	33.7	33.7	53	18.4	1	3	248	0.00	29.958 
17:35	33.5	33.5	33.5	53	18.2	2	4	248	0.00	29.958 
17:40	33.4	33.4	33.4	54	18.6	1	7	248	0.00	29.958 
17:45	33.2	33.2	33.2	54	18.4	1	4	248	0.00	29.963 
17:50	33.1	33.1	33.1	54	18.3	2	5	248	0.00	29.963 
17:55	33.1	33.1	33.1	54	18.3	2	6	248	0.00	29.963 
18:00	33.1	33.1	33.1	54	18.3	2	7	248	0.00	29.966 
18:05	32.9	32.9	32.9	54	18.1	1	5	248	0.00	29.966 
18:10	32.9	32.9	32.9	55	18.5	2	7	248	0.00	29.966 
18:15	32.8	32.8	32.8	55	18.4	2	6	248	0.00	29.967 
18:20	32.8	32.8	32.8	56	18.9	2	4	248	0.00	29.967 
18:25	32.8	32.8	32.8	56	18.9	2	5	248	0.00	29.967 
18:30	32.7	32.7	32.7	57	19.2	2	5	248	0.00	29.969 
18:35	32.7	32.7	32.7	58	19.6	1	4	248	0.00	29.969 
18:40	32.7	32.7	32.7	58	19.6	2	5	248	0.00	29.969 
18:45	32.7	32.7	32.7	58	19.6	1	6	248	0.00	29.968 
18:50	32.7	32.7	32.7	59	20.0	2	6	248	0.00	29.968 
18:55	32.5	32.5	32.5	59	19.8	2	7	248	0.00	29.968 
19:00	32.5	32.5	32.5	59	19.8	2	6	225	0.00	29.967 
19:05	32.5	32.5	32.5	60	20.2	2	6	248	0.00	29.967 
19:10	32.4	32.4	32.4	60	20.1	1	5	248	0.00	29.967 
19:15	32.4	32.4	32.4	60	20.1	2	7	248	0.00	29.970 
19:20	32.5	32.5	32.5	60	20.2	3	10	248	0.00	29.970 
19:25	32.5	32.5	32.5	60	20.2	2	6	248	0.00	29.970 
19:30	32.7	32.7	32.7	60	20.4	3	10	248	0.00	29.966 
19:35	32.7	32.7	32.7	60	20.4	3	7	248	0.00	29.966 
19:40	32.7	32.7	32.7	60	20.4	2	7	248	0.00	29.966 
19:45	32.7	32.7	32.7	60	20.4	2	7	248	0.00	29.966 
19:50	32.7	32.7	32.7	60	20.4	2	6	248	0.00	29.966 
19:55	32.8	29.0	32.8	60	20.5	4	11	248	0.00	29.966 
20:00	32.9	32.9	32.9	60	20.6	2	7	248	0.00	29.969 
20:05	33.1	29.3	33.1	60	20.7	4	10	248	0.00	29.969 
20:10	33.1	33.1	33.1	60	20.7	2	6	248	0.00	29.969 
20:15	33.2	33.2	33.2	60	20.8	3	10	248	0.00	29.983 
20:20	33.2	33.2	33.2	61	21.2	2	6	248	0.00	29.983 
20:25	33.2	33.2	33.2	61	21.2	3	11	248	0.00	29.983 
20:30	33.4	33.4	33.4	61	21.4	3	6	248	0.00	29.989 
20:35	33.4	33.4	33.4	61	21.4	3	8	248	0.00	29.989 
20:40	33.4	33.4	33.4	60	21.0	3	10	248	0.00	29.989 
20:45	33.5	33.5	33.5	60	21.1	3	6	248	0.00	29.994 
20:50	33.5	33.5	33.5	60	21.1	2	5	248	0.00	29.994 
20:55	33.7	30.0	33.7	61	21.7	4	10	248	0.00	29.994 
21:00	33.7	30.0	33.7	62	22.1	4	9	270	0.00	30.003 
21:05	33.7	33.7	33.7	62	22.1	3	11	248	0.00	30.003 
21:10	33.7	33.7	33.7	63	22.5	3	7	248	0.00	30.003 
21:15	33.5	33.5	33.5	64	22.6	2	5	270	0.00	30.003 
21:20	33.5	33.5	33.5	65	23.0	3	8	248	0.00	30.003 
21:25	33.4	28.7	33.4	66	23.3	5	10	248	0.00	30.003 
21:30	33.4	33.4	33.4	67	23.6	2	5	248	0.00	30.012 
21:35	33.2	33.2	33.2	68	23.8	2	4	248	0.00	30.012 
21:40	33.2	33.2	33.2	68	23.8	3	6	248	0.00	30.012 
21:45	33.2	33.2	33.2	68	23.8	2	5	248	0.00	30.012 
21:50	33.2	33.2	33.2	68	23.8	2	5	248	0.00	30.012 
21:55	33.2	33.2	33.2	68	23.8	2	3	248	0.00	30.012 
22:00	33.4	33.4	33.4	68	24.0	2	7	248	0.00	30.014 
22:05	33.4	33.4	33.4	67	23.6	2	5	248	0.00	30.014 
22:10	33.5	33.5	33.5	67	23.7	2	5	248	0.00	30.014 
22:15	33.5	33.5	33.5	67	23.7	2	6	248	0.00	30.016 
22:20	33.5	33.5	33.5	68	24.1	2	5	248	0.00	30.016 
22:25	33.5	33.5	33.5	68	24.1	2	5	248	0.00	30.016 
22:30	33.5	33.5	33.5	68	24.1	2	7	248	0.00	30.016 
22:35	33.5	33.5	33.5	69	24.4	3	6	248	0.00	30.016 
22:40	33.7	33.7	33.7	69	24.6	2	5	248	0.00	30.016 
22:45	33.7	33.7	33.7	69	24.6	2	7	248	0.00	30.018 
22:50	33.7	33.7	33.7	69	24.6	2	6	292	0.00	30.018 
22:55	33.7	33.7	33.7	69	24.6	2	4	248	0.00	30.018 
23:00	33.7	33.7	33.7	70	25.0	2	5	248	0.00	30.012 
23:05	33.7	33.7	33.7	70	25.0	2	5	248	0.00	30.012 
23:10	33.7	33.7	33.7	70	25.0	2	4	248	0.00	30.012 
23:15	33.5	33.5	33.5	71	25.1	1	4	248	0.00	30.015 
23:20	33.5	33.5	33.5	71	25.1	2	5	248	0.00	30.015 
23:25	33.5	33.5	33.5	72	25.5	3	6	248	0.00	30.015 
23:30	33.5	33.5	33.5	72	25.5	2	5	225	0.00	30.022 
23:35	33.5	33.5	33.5	72	25.5	2	6	248	0.00	30.022 
23:40	33.5	33.5	33.5	72	25.5	2	3	248	0.00	30.022 
23:45	33.5	33.5	33.5	73	25.8	2	5	248	0.00	30.025 
23:50	33.5	33.5	33.5	73	25.8	2	4	248	0.00	30.025 
23:55	33.5	33.5	33.5	73	25.8	1	4	248	0.00	30.025 

CoCoRaHS
IN-AL-39
A2 Web Hosting
Creative Commons License
GoDaddy
search engine by freefind advanced

loaded 2018-11-13 22:40:24 • last modified 2010-11-18 10:43:29
Privacy PolicyDisclaimer
• wx.awcolley.com is powered by PmWiki v.2002016 •
• all content (unless otherwise noted) © 2018 A W Colley